createdAt,value
2019-03-26T00:00:54.504Z,21.67
2019-03-26T00:03:26.042Z,19.67
2019-03-26T00:05:57.574Z,21.33
2019-03-26T00:08:29.111Z,22.40
2019-03-26T00:11:00.615Z,30.47
2019-03-26T00:13:31.339Z,35.33
2019-03-26T00:16:02.668Z,33.57
2019-03-26T00:18:34.266Z,36.47
2019-03-26T00:21:05.866Z,33.47
2019-03-26T00:23:37.374Z,42.13
2019-03-26T00:26:08.878Z,41.30
2019-03-26T00:28:40.420Z,43.60
2019-03-26T00:31:11.974Z,33.90
2019-03-26T00:33:43.558Z,28.27
2019-03-26T00:36:15.113Z,26.70
2019-03-26T00:38:46.730Z,27.10
2019-03-26T00:41:18.334Z,26.13
2019-03-26T00:43:49.850Z,28.00
2019-03-26T00:46:21.358Z,25.70
2019-03-26T00:48:52.911Z,24.67
2019-03-26T00:51:24.446Z,23.77
2019-03-26T00:53:56.018Z,31.17
2019-03-26T00:56:27.998Z,25.80
2019-03-26T00:58:59.501Z,23.80
2019-03-26T01:01:31.062Z,26.70
2019-03-26T01:04:02.580Z,28.23
2019-03-26T01:06:34.122Z,29.00
2019-03-26T01:09:07.262Z,26.20
2019-03-26T01:11:39.000Z,26.47
2019-03-26T01:14:11.666Z,25.60
2019-03-26T01:16:43.116Z,25.97
2019-03-26T01:19:14.677Z,24.47
2019-03-26T01:21:46.626Z,27.50
2019-03-26T01:24:18.150Z,30.77
2019-03-26T01:26:49.694Z,31.13
2019-03-26T01:29:21.205Z,35.93
2019-03-26T01:31:52.690Z,29.90
2019-03-26T01:34:24.200Z,36.70
2019-03-26T01:36:55.850Z,38.73
2019-03-26T01:39:27.401Z,33.13
2019-03-26T01:41:58.834Z,38.40
2019-03-26T01:44:30.374Z,44.97
2019-03-26T01:47:05.968Z,39.43
2019-03-26T01:49:37.618Z,44.57
2019-03-26T01:52:09.158Z,44.53
2019-03-26T01:54:39.780Z,42.43
2019-03-26T01:57:11.090Z,32.33
2019-03-26T01:59:42.637Z,33.57
2019-03-26T02:02:14.217Z,38.33
2019-03-26T02:04:58.949Z,37.57
2019-03-26T02:07:19.246Z,44.20
2019-03-26T02:09:50.766Z,34.47
2019-03-26T02:12:22.670Z,42.83
2019-03-26T02:14:54.187Z,39.80
2019-03-26T02:17:25.694Z,37.80
2019-03-26T02:19:58.206Z,38.03
2019-03-26T02:22:29.792Z,43.50
2019-03-26T02:25:01.303Z,37.23
2019-03-26T02:27:32.909Z,31.57
2019-03-26T02:30:04.414Z,25.13
2019-03-26T02:32:36.303Z,30.80
2019-03-26T02:35:17.898Z,25.37
2019-03-26T02:37:41.086Z,27.93
2019-03-26T02:40:12.761Z,25.53
2019-03-26T02:42:44.327Z,23.07
2019-03-26T02:45:15.940Z,21.77
2019-03-26T02:47:47.753Z,21.53
2019-03-26T02:50:19.589Z,21.97
2019-03-26T02:52:51.111Z,23.80
2019-03-26T02:55:22.998Z,19.57
2019-03-26T02:57:54.502Z,24.10
2019-03-26T03:00:26.022Z,24.67
2019-03-26T03:02:57.643Z,18.30
2019-03-26T03:05:35.753Z,21.20
2019-03-26T03:08:02.415Z,22.00
2019-03-26T03:10:33.922Z,23.73
2019-03-26T03:13:05.551Z,27.17
2019-03-26T03:15:37.115Z,19.90
2019-03-26T03:18:08.633Z,22.53
2019-03-26T03:20:40.182Z,18.77
2019-03-26T03:23:11.643Z,22.17
2019-03-26T03:25:42.731Z,33.60
2019-03-26T03:28:14.048Z,30.93
2019-03-26T03:30:45.547Z,21.20
2019-03-26T03:33:17.426Z,22.53
2019-03-26T03:35:52.761Z,17.07
2019-03-26T03:38:22.446Z,17.30
2019-03-26T03:40:53.946Z,17.70
2019-03-26T03:43:25.395Z,17.53
2019-03-26T03:45:56.897Z,24.07
2019-03-26T03:48:28.742Z,17.57
2019-03-26T03:51:02.765Z,16.77
2019-03-26T03:53:34.417Z,19.97
2019-03-26T03:56:08.230Z,15.80
2019-03-26T03:58:42.014Z,19.27
2019-03-26T04:01:13.534Z,16.17
2019-03-26T04:03:45.058Z,16.90
2019-03-26T04:06:16.626Z,14.27
2019-03-26T04:08:48.128Z,16.13
2019-03-26T04:11:19.971Z,21.77
2019-03-26T04:13:51.478Z,20.77
2019-03-26T04:16:22.979Z,19.47
2019-03-26T04:18:54.493Z,15.33
2019-03-26T04:21:26.039Z,19.60
2019-03-26T04:23:57.563Z,26.43
2019-03-26T04:26:29.098Z,23.17
2019-03-26T04:29:00.613Z,18.33
2019-03-26T04:31:32.047Z,20.50
2019-03-26T04:34:03.956Z,28.27
2019-03-26T04:36:34.530Z,21.43
2019-03-26T04:39:07.003Z,26.50
2019-03-26T04:41:38.518Z,17.93
2019-03-26T04:44:10.059Z,22.67
2019-03-26T04:46:41.578Z,24.27
2019-03-26T04:49:13.210Z,19.87
2019-03-26T04:51:45.235Z,20.40
2019-03-26T04:54:16.778Z,19.30
2019-03-26T04:56:48.361Z,17.73
2019-03-26T04:59:19.918Z,21.97
2019-03-26T05:01:51.426Z,18.60
2019-03-26T05:04:23.081Z,22.37
2019-03-26T05:06:54.593Z,18.13
2019-03-26T05:09:26.182Z,26.07
2019-03-26T05:11:57.782Z,27.60
2019-03-26T05:14:29.879Z,21.13
2019-03-26T07:34:39.863Z,13.17
2019-03-26T07:37:11.258Z,12.67
2019-03-26T07:39:42.798Z,13.90
2019-03-26T07:42:13.446Z,15.30
2019-03-26T07:44:45.390Z,11.10
2019-03-26T07:47:16.814Z,17.00
2019-03-26T07:49:48.387Z,10.87
2019-03-26T07:52:20.073Z,12.17
2019-03-26T07:54:51.780Z,10.87
2019-03-26T07:57:23.304Z,14.10
2019-03-26T07:59:54.974Z,13.53
2019-03-26T08:02:26.802Z,10.23
2019-03-26T08:04:58.265Z,15.30
2019-03-26T08:07:34.095Z,12.03
2019-03-26T08:10:06.011Z,11.47
2019-03-26T08:12:37.984Z,15.90
2019-03-26T08:15:09.876Z,9.93
2019-03-26T08:17:41.446Z,11.60
2019-03-26T08:20:14.488Z,10.10
2019-03-26T08:22:46.007Z,11.60
2019-03-26T08:25:17.695Z,11.10
2019-03-26T08:27:49.262Z,11.50
2019-03-26T08:30:22.892Z,13.60
2019-03-26T08:32:54.679Z,14.40
2019-03-26T08:35:26.258Z,15.27
2019-03-26T08:38:11.779Z,15.10
2019-03-26T08:40:32.898Z,9.80
2019-03-26T08:43:04.542Z,11.93
2019-03-26T08:45:36.043Z,13.87
2019-03-26T08:48:07.546Z,10.47
2019-03-26T08:50:38.182Z,11.97
2019-03-26T08:53:09.591Z,9.37
2019-03-26T08:55:41.457Z,12.80
2019-03-26T08:58:13.164Z,7.87
2019-03-26T09:00:44.774Z,13.30
2019-03-26T09:03:16.493Z,11.23
2019-03-26T09:05:48.006Z,8.57
2019-03-26T09:08:25.215Z,9.83
2019-03-26T09:10:52.272Z,10.63
2019-03-26T09:13:23.545Z,12.50
2019-03-26T09:15:55.330Z,14.13
2019-03-26T09:18:27.109Z,10.87
2019-03-26T09:20:58.794Z,8.70
2019-03-26T09:23:30.754Z,10.13
2019-03-26T09:26:02.698Z,11.60
2019-03-26T09:28:34.618Z,6.87
2019-03-26T09:31:06.354Z,9.17
2019-03-26T09:33:38.295Z,8.53
2019-03-26T09:36:09.786Z,9.53
2019-03-26T09:38:41.550Z,11.60
2019-03-26T09:41:13.318Z,6.43
2019-03-26T09:43:45.336Z,10.00
2019-03-26T09:46:17.162Z,5.73
2019-03-26T09:48:49.197Z,7.80
2019-03-26T09:51:21.032Z,7.57
2019-03-26T09:53:52.578Z,6.57
2019-03-26T09:56:30.616Z,6.53
2019-03-26T09:58:57.717Z,11.97
2019-03-26T10:01:28.230Z,6.70
2019-03-26T10:03:59.924Z,7.40
2019-03-26T10:06:31.822Z,8.07
2019-03-26T10:09:03.720Z,9.53
2019-03-26T10:11:35.554Z,13.07
2019-03-26T10:14:07.327Z,12.33
2019-03-26T10:16:38.990Z,13.70
2019-03-26T10:19:10.473Z,14.07
2019-03-26T10:21:41.962Z,12.97
2019-03-26T10:24:12.513Z,9.83
2019-03-26T10:26:43.278Z,10.10
2019-03-26T10:29:29.216Z,11.57
2019-03-26T10:31:47.930Z,9.47
2019-03-26T10:34:19.422Z,10.53
2019-03-26T10:36:50.138Z,8.97
2019-03-26T10:39:21.452Z,11.60
2019-03-26T10:41:52.979Z,10.70
2019-03-26T10:44:24.473Z,10.67
2019-03-26T10:46:56.022Z,10.47
2019-03-26T10:49:27.547Z,7.73
2019-03-26T10:51:59.025Z,10.23
2019-03-26T10:54:29.686Z,9.40
2019-03-26T10:57:01.363Z,5.40
2019-03-26T10:59:33.935Z,7.30
2019-03-26T11:02:05.442Z,9.23
2019-03-26T11:04:37.050Z,7.97
2019-03-26T11:07:08.534Z,6.73
2019-03-26T11:09:40.030Z,8.03
2019-03-26T11:12:10.590Z,7.63
2019-03-26T11:14:41.029Z,4.37
2019-03-26T11:17:11.406Z,8.00
2019-03-26T11:19:42.774Z,9.43
2019-03-26T11:22:14.375Z,7.47
2019-03-26T11:24:45.862Z,11.03
2019-03-26T11:27:17.363Z,7.03
2019-03-26T11:29:48.846Z,6.50
2019-03-26T11:32:20.374Z,6.10
2019-03-26T11:34:51.854Z,5.83
2019-03-26T11:37:23.370Z,7.87
2019-03-26T11:39:54.794Z,7.60
2019-03-26T11:42:26.290Z,8.90
2019-03-26T11:44:59.425Z,9.23
2019-03-26T11:47:31.103Z,8.90
2019-03-26T11:50:04.774Z,19.87
2019-03-26T11:52:35.939Z,5.70
2019-03-26T11:55:07.642Z,7.37
2019-03-26T11:57:39.058Z,7.00
2019-03-26T12:00:11.441Z,5.10
2019-03-26T12:02:42.922Z,5.97
2019-03-26T12:05:14.666Z,9.60
2019-03-26T12:07:46.210Z,9.33
2019-03-26T12:10:17.714Z,5.53
2019-03-26T12:12:49.294Z,10.63
2019-03-26T12:15:20.785Z,7.40
2019-03-26T12:17:52.329Z,10.07
2019-03-26T12:20:23.785Z,5.37
2019-03-26T12:22:55.346Z,7.90
2019-03-26T12:25:26.861Z,6.37
2019-03-26T12:27:58.273Z,9.53
2019-03-26T12:30:34.465Z,7.63
2019-03-26T12:33:06.477Z,5.80
2019-03-26T12:35:37.981Z,8.63
2019-03-26T12:38:27.638Z,8.20
2019-03-26T12:40:59.090Z,7.00
2019-03-26T12:43:30.638Z,5.57
2019-03-26T12:46:02.177Z,9.80
2019-03-26T12:48:34.599Z,7.17
2019-03-26T12:51:06.077Z,4.33
2019-03-26T12:53:37.493Z,5.13
2019-03-26T12:56:08.981Z,19.13
2019-03-26T12:58:40.579Z,10.17
2019-03-26T13:01:12.094Z,8.37
2019-03-26T13:03:43.622Z,5.53
2019-03-26T13:06:15.083Z,5.97
2019-03-26T13:08:46.570Z,8.27
2019-03-26T13:11:18.022Z,10.33
2019-03-26T13:13:49.510Z,7.07
2019-03-26T13:16:20.946Z,6.63
2019-03-26T13:18:52.433Z,6.90
2019-03-26T13:21:23.985Z,6.93
2019-03-26T13:23:55.647Z,5.43
2019-03-26T13:26:27.158Z,6.03
2019-03-26T13:28:58.601Z,6.20
2019-03-26T13:31:30.030Z,10.53
2019-03-26T13:34:01.454Z,6.70
2019-03-26T13:36:32.967Z,7.63
2019-03-26T13:39:05.586Z,6.40
2019-03-26T13:41:37.526Z,6.77
2019-03-26T13:44:08.974Z,10.80
2019-03-26T13:46:40.472Z,11.43
2019-03-26T13:49:12.254Z,8.60
2019-03-26T13:51:42.733Z,17.37
2019-03-26T13:54:14.021Z,12.00
2019-03-26T13:56:45.454Z,6.37
2019-03-26T13:59:16.974Z,9.30
2019-03-26T14:01:48.470Z,10.30
2019-03-26T14:04:20.062Z,7.80
2019-03-26T14:06:52.647Z,7.87
2019-03-26T14:09:24.270Z,15.67
2019-03-26T14:11:57.713Z,10.97
2019-03-26T14:14:28.951Z,6.83
2019-03-26T14:16:59.664Z,11.20
2019-03-26T14:19:30.039Z,9.13
2019-03-26T14:22:01.361Z,4.83
2019-03-26T14:24:32.902Z,7.67
2019-03-26T14:27:04.422Z,10.77
2019-03-26T14:29:35.979Z,4.77
2019-03-26T14:32:07.491Z,6.17
2019-03-26T14:34:39.043Z,6.13
2019-03-26T14:37:10.558Z,6.50
2019-03-26T14:39:41.968Z,6.33
2019-03-26T14:42:13.482Z,6.43
2019-03-26T14:44:44.969Z,15.03
2019-03-26T14:47:16.504Z,16.03
2019-03-26T14:49:47.989Z,12.07
2019-03-26T14:52:19.559Z,8.80
2019-03-26T14:54:51.170Z,10.23
2019-03-26T14:57:22.658Z,8.13
2019-03-26T14:59:54.227Z,6.13
2019-03-26T15:02:25.918Z,7.40
2019-03-26T15:04:57.502Z,5.63
2019-03-26T15:07:44.372Z,3.70
2019-03-26T15:10:18.406Z,7.80
2019-03-26T15:12:49.997Z,2.97
2019-03-26T15:15:21.612Z,3.50
2019-03-26T15:17:53.291Z,7.53
2019-03-26T15:20:23.850Z,7.13
2019-03-26T15:22:57.960Z,7.80
2019-03-26T15:25:28.450Z,5.00
2019-03-26T15:27:59.885Z,6.97
2019-03-26T15:30:31.370Z,8.97
2019-03-26T15:33:02.010Z,4.73
2019-03-26T15:35:33.685Z,4.20
2019-03-26T15:38:05.681Z,5.97
2019-03-26T15:40:37.332Z,4.33
2019-03-26T15:43:09.197Z,6.30
2019-03-26T15:45:40.854Z,8.67
2019-03-26T15:48:12.478Z,7.17
2019-03-26T15:50:48.293Z,6.63
2019-03-26T15:53:20.466Z,6.50
2019-03-26T15:55:52.180Z,4.10
2019-03-26T15:58:23.927Z,5.17
2019-03-26T16:00:55.562Z,8.90
2019-03-26T16:03:28.121Z,16.40
2019-03-26T16:05:59.610Z,6.30
2019-03-26T16:08:31.146Z,6.83
2019-03-26T16:11:02.781Z,4.97
2019-03-26T16:13:35.759Z,6.70
2019-03-26T16:16:07.479Z,6.47
2019-03-26T16:18:38.962Z,5.63
2019-03-26T16:21:10.441Z,7.43
2019-03-26T16:23:42.266Z,8.27
2019-03-26T16:26:13.681Z,9.57
2019-03-26T16:28:45.197Z,6.50
2019-03-26T16:31:17.069Z,18.47
2019-03-26T16:33:48.554Z,9.80
2019-03-26T16:36:19.970Z,5.43
2019-03-26T16:38:51.478Z,5.10
2019-03-26T16:41:22.954Z,9.90
2019-03-26T16:43:54.487Z,4.97
2019-03-26T16:46:25.977Z,8.93
2019-03-26T16:48:57.426Z,8.33
2019-03-26T16:51:27.901Z,6.90
2019-03-26T16:53:59.194Z,10.37
2019-03-26T16:56:30.980Z,10.70
2019-03-26T16:59:01.534Z,8.00
2019-03-26T17:01:32.939Z,14.23
2019-03-26T17:04:03.492Z,13.80
2019-03-26T17:06:34.890Z,11.67
2019-03-26T17:09:07.974Z,11.83
2019-03-26T17:11:38.602Z,12.13
2019-03-26T17:14:08.989Z,11.97
2019-03-26T17:16:42.855Z,15.67
2019-03-26T17:19:14.679Z,9.80
2019-03-26T17:21:45.378Z,14.07
2019-03-26T17:24:16.614Z,14.03
2019-03-26T17:26:48.134Z,11.23
2019-03-26T17:29:19.545Z,11.83
2019-03-26T17:31:55.164Z,14.53
2019-03-26T17:34:27.062Z,15.07
2019-03-26T17:36:58.731Z,28.83
2019-03-26T17:39:31.724Z,18.07
2019-03-26T17:42:16.171Z,20.93
2019-03-26T17:44:36.866Z,14.40
2019-03-26T17:47:08.350Z,13.43
2019-03-26T17:49:40.154Z,10.50
2019-03-26T17:52:12.070Z,20.50
2019-03-26T17:54:43.934Z,9.73
2019-03-26T17:57:15.522Z,11.27
2019-03-26T17:59:46.091Z,16.30
2019-03-26T18:02:18.517Z,21.37
2019-03-26T18:04:50.879Z,14.27
2019-03-26T18:07:22.362Z,13.17
2019-03-26T18:09:54.130Z,10.70
2019-03-26T18:12:31.135Z,8.43
2019-03-26T18:14:58.782Z,5.80
2019-03-26T18:17:30.294Z,9.03
2019-03-26T18:20:01.859Z,5.13
2019-03-26T18:22:33.394Z,4.97
2019-03-26T18:25:05.398Z,7.70
2019-03-26T18:27:52.767Z,4.10
2019-03-26T18:30:24.261Z,5.40
2019-03-26T18:32:55.771Z,3.07
2019-03-26T18:35:28.326Z,4.50
2019-03-26T18:37:59.838Z,5.37
2019-03-26T18:40:31.386Z,7.73
2019-03-26T18:43:01.897Z,7.77
2019-03-26T18:45:33.183Z,9.97
2019-03-26T18:48:04.754Z,6.10
2019-03-26T18:50:36.316Z,5.77
2019-03-26T18:53:08.790Z,7.03
2019-03-26T18:55:40.342Z,10.90
2019-03-26T18:58:12.123Z,12.03
2019-03-26T19:00:43.605Z,6.77
2019-03-26T19:03:15.152Z,10.73
2019-03-26T19:05:46.651Z,8.87
2019-03-26T19:08:18.128Z,6.50
2019-03-26T19:10:49.658Z,3.40
2019-03-26T19:13:21.090Z,5.13
2019-03-26T19:15:52.581Z,4.27
2019-03-26T19:18:24.066Z,5.03
2019-03-26T19:21:01.978Z,7.07
2019-03-26T19:23:35.887Z,7.00
2019-03-26T19:26:07.149Z,6.33
2019-03-26T19:28:38.526Z,7.40
2019-03-26T19:31:09.565Z,8.87
2019-03-26T19:33:40.946Z,4.73
2019-03-26T19:36:11.633Z,3.00
2019-03-26T19:38:42.918Z,4.43
2019-03-26T19:41:13.508Z,6.87
2019-03-26T19:43:45.230Z,6.83
2019-03-26T19:46:15.822Z,5.77
2019-03-26T19:48:47.142Z,8.53
2019-03-26T19:51:18.722Z,6.83
2019-03-26T19:53:50.194Z,9.97
2019-03-26T19:56:21.615Z,15.77
2019-03-26T19:58:53.130Z,9.13
2019-03-26T20:01:24.598Z,6.03
2019-03-26T20:03:55.999Z,5.83
2019-03-26T20:06:27.522Z,9.07
2019-03-26T20:08:59.062Z,5.63
2019-03-26T20:11:30.908Z,8.00
2019-03-26T20:14:02.433Z,7.57
2019-03-26T20:16:41.690Z,4.60
2019-03-26T20:19:07.422Z,4.17
2019-03-26T20:21:39.976Z,8.97
2019-03-26T20:24:11.478Z,6.53
2019-03-26T20:26:42.334Z,9.77
2019-03-26T20:29:13.558Z,9.33
2019-03-26T20:31:45.637Z,15.50
2019-03-26T20:34:17.541Z,14.13
2019-03-26T20:36:49.051Z,8.17
2019-03-26T20:39:20.867Z,8.93
2019-03-26T20:41:51.606Z,8.83
2019-03-26T20:44:21.983Z,9.73
2019-03-26T20:46:52.426Z,10.33
2019-03-26T20:49:23.922Z,7.83
2019-03-26T20:51:55.926Z,9.33
2019-03-26T20:54:27.654Z,7.87
2019-03-26T20:56:58.335Z,10.73
2019-03-26T20:59:30.793Z,8.80
2019-03-26T21:02:01.797Z,10.43
2019-03-26T21:04:32.206Z,9.20
2019-03-26T21:07:02.960Z,10.03
2019-03-26T21:09:36.226Z,13.73
2019-03-26T21:12:08.388Z,12.53
2019-03-26T21:14:40.913Z,10.40
2019-03-26T21:17:12.502Z,14.57
2019-03-26T21:19:48.280Z,14.90
2019-03-26T21:22:22.654Z,13.50
2019-03-26T21:24:57.359Z,13.77
2019-03-26T21:27:31.950Z,11.03
2019-03-26T21:30:10.608Z,11.70
2019-03-26T21:32:37.993Z,11.83
2019-03-26T21:35:09.870Z,22.40
2019-03-26T21:37:44.012Z,13.33
2019-03-26T21:40:16.910Z,11.07
2019-03-26T21:42:48.746Z,15.87
2019-03-26T21:45:32.769Z,18.60
2019-03-26T21:48:04.726Z,18.17
2019-03-26T21:50:36.257Z,20.10
2019-03-26T21:53:07.741Z,20.60
2019-03-26T21:55:39.262Z,20.07
2019-03-26T21:58:10.757Z,23.23
2019-03-26T22:00:44.369Z,18.30
2019-03-26T22:03:15.578Z,18.63
2019-03-26T22:05:48.081Z,22.30
2019-03-26T22:08:19.671Z,25.83
2019-03-26T22:10:50.261Z,23.37
2019-03-26T22:13:21.513Z,22.97
2019-03-26T22:15:53.141Z,26.33
2019-03-26T22:18:24.724Z,17.87
2019-03-26T22:20:58.779Z,23.47
2019-03-26T22:23:33.653Z,19.00
2019-03-26T22:26:07.447Z,20.07
2019-03-26T22:28:44.057Z,20.57
2019-03-26T22:31:18.781Z,25.23
2019-03-26T22:33:51.249Z,18.17
2019-03-26T22:36:22.790Z,23.30
2019-03-26T22:38:54.257Z,23.40
2019-03-26T22:41:25.749Z,27.97
2019-03-26T22:43:57.254Z,37.80
2019-03-26T22:46:28.819Z,23.67
2019-03-26T22:49:00.330Z,18.43
2019-03-26T22:51:31.817Z,17.77
2019-03-26T22:54:02.318Z,26.97
2019-03-26T22:56:34.598Z,26.30
2019-03-26T22:59:06.139Z,27.67
2019-03-26T23:01:38.609Z,23.20
2019-03-26T23:04:10.257Z,27.30
2019-03-26T23:06:41.726Z,35.40
2019-03-26T23:09:13.337Z,44.10
2019-03-26T23:11:44.910Z,35.03
2019-03-26T23:14:16.712Z,33.90
2019-03-26T23:16:48.422Z,37.70
2019-03-26T23:19:19.917Z,40.43
2019-03-26T23:21:51.382Z,35.07
2019-03-26T23:24:23.670Z,31.63
2019-03-26T23:26:56.263Z,30.63
2019-03-26T23:29:28.278Z,29.03
2019-03-26T23:32:00.101Z,28.30
2019-03-26T23:34:32.042Z,26.50
2019-03-26T23:37:03.582Z,26.77
2019-03-26T23:39:41.754Z,29.87
2019-03-26T23:42:17.731Z,27.43
2019-03-26T23:44:58.198Z,21.07
2019-03-26T23:47:28.871Z,28.20
2019-03-26T23:50:00.728Z,31.13
2019-03-26T23:52:32.315Z,35.30
2019-03-26T23:55:03.990Z,35.63
2019-03-26T23:57:37.403Z,42.07
